sensor_id;sensor_type;location;lat;lon;timestamp;pressure;altitude;pressure_sealevel;temperature;humidity
32638;BME280;19045;52.268;10.506;2023-03-20T00:01:48;100665.72;;;10.76;100.00
32638;BME280;19045;52.268;10.506;2023-03-20T00:04:15;100677.47;;;10.70;100.00
32638;BME280;19045;52.268;10.506;2023-03-20T00:06:41;100674.78;;;10.70;100.00
32638;BME280;19045;52.268;10.506;2023-03-20T00:09:08;100681.75;;;10.71;100.00
32638;BME280;19045;52.268;10.506;2023-03-20T00:11:41;100679.03;;;10.66;100.00
32638;BME280;19045;52.268;10.506;2023-03-20T00:14:13;100675.78;;;10.64;100.00
32638;BME280;19045;52.268;10.506;2023-03-20T00:16:43;100679.03;;;10.66;100.00
32638;BME280;19045;52.268;10.506;2023-03-20T00:19:14;100676.84;;;10.63;100.00
32638;BME280;19045;52.268;10.506;2023-03-20T00:21:42;100673.66;;;10.66;100.00
32638;BME280;19045;52.268;10.506;2023-03-20T00:24:10;100680.09;;;10.65;100.00
32638;BME280;19045;52.268;10.506;2023-03-20T00:26:37;100678.47;;;10.64;100.00
32638;BME280;19045;52.268;10.506;2023-03-20T00:29:05;100683.28;;;10.62;100.00
32638;BME280;19045;52.268;10.506;2023-03-20T00:31:34;100672.28;;;10.63;100.00
32638;BME280;19045;52.268;10.506;2023-03-20T00:34:04;100670.88;;;10.61;100.00
32638;BME280;19045;52.268;10.506;2023-03-20T00:36:32;100665.78;;;10.59;100.00
32638;BME280;19045;52.268;10.506;2023-03-20T00:38:58;100668.41;;;10.54;100.00
32638;BME280;19045;52.268;10.506;2023-03-20T00:41:27;100664.34;;;10.52;100.00
32638;BME280;19045;52.268;10.506;2023-03-20T00:43:58;100654.66;;;10.51;100.00
32638;BME280;19045;52.268;10.506;2023-03-20T00:46:25;100673.41;;;10.46;100.00
32638;BME280;19045;52.268;10.506;2023-03-20T00:48:52;100668.53;;;10.43;100.00
32638;BME280;19045;52.268;10.506;2023-03-20T00:51:21;100673.91;;;10.43;100.00
32638;BME280;19045;52.268;10.506;2023-03-20T00:53:48;100677.66;;;10.42;100.00
32638;BME280;19045;52.268;10.506;2023-03-20T00:56:32;100676.22;;;10.34;100.00
32638;BME280;19045;52.268;10.506;2023-03-20T00:59:01;100680.22;;;10.31;100.00
32638;BME280;19045;52.268;10.506;2023-03-20T01:01:29;100686.72;;;10.35;100.00
32638;BME280;19045;52.268;10.506;2023-03-20T01:03:57;100681.59;;;10.34;100.00
32638;BME280;19045;52.268;10.506;2023-03-20T01:06:25;100681.16;;;10.42;100.00
32638;BME280;19045;52.268;10.506;2023-03-20T01:08:53;100679.34;;;10.48;100.00
32638;BME280;19045;52.268;10.506;2023-03-20T01:11:22;100678.59;;;10.52;100.00
32638;BME280;19045;52.268;10.506;2023-03-20T01:13:49;100681.81;;;10.54;100.00
32638;BME280;19045;52.268;10.506;2023-03-20T01:16:19;100685.97;;;10.62;100.00
32638;BME280;19045;52.268;10.506;2023-03-20T01:18:46;100688.59;;;10.57;100.00
32638;BME280;19045;52.268;10.506;2023-03-20T01:21:13;100685.91;;;10.57;100.00
32638;BME280;19045;52.268;10.506;2023-03-20T01:23:41;100676.47;;;10.54;100.00
32638;BME280;19045;52.268;10.506;2023-03-20T01:26:20;100691.47;;;10.50;100.00
32638;BME280;19045;52.268;10.506;2023-03-20T01:28:47;100684.19;;;10.51;100.00
32638;BME280;19045;52.268;10.506;2023-03-20T01:31:15;100689.53;;;10.46;100.00
32638;BME280;19045;52.268;10.506;2023-03-20T01:33:42;100685.19;;;10.45;100.00
32638;BME280;19045;52.268;10.506;2023-03-20T01:36:10;100687.47;;;10.53;100.00
32638;BME280;19045;52.268;10.506;2023-03-20T01:38:37;100688.97;;;10.44;100.00
32638;BME280;19045;52.268;10.506;2023-03-20T01:41:11;100691.72;;;10.49;100.00
32638;BME280;19045;52.268;10.506;2023-03-20T01:43:39;100694.09;;;10.45;100.00
32638;BME280;19045;52.268;10.506;2023-03-20T01:46:15;100701.41;;;10.50;100.00
32638;BME280;19045;52.268;10.506;2023-03-20T01:49:02;100703.31;;;10.54;100.00
32638;BME280;19045;52.268;10.506;2023-03-20T01:51:31;100704.22;;;10.60;100.00
32638;BME280;19045;52.268;10.506;2023-03-20T01:54:03;100697.53;;;10.62;100.00
32638;BME280;19045;52.268;10.506;2023-03-20T01:56:33;100702.66;;;10.64;100.00
32638;BME280;19045;52.268;10.506;2023-03-20T01:59:04;100703.00;;;10.72;100.00
32638;BME280;19045;52.268;10.506;2023-03-20T02:01:32;100708.19;;;10.79;100.00
32638;BME280;19045;52.268;10.506;2023-03-20T02:04:01;100711.38;;;10.76;100.00
32638;BME280;19045;52.268;10.506;2023-03-20T02:06:28;100715.75;;;10.82;100.00
32638;BME280;19045;52.268;10.506;2023-03-20T02:08:55;100723.28;;;10.80;100.00
32638;BME280;19045;52.268;10.506;2023-03-20T02:11:23;100722.81;;;10.88;100.00
32638;BME280;19045;52.268;10.506;2023-03-20T02:13:53;100728.66;;;10.80;100.00
32638;BME280;19045;52.268;10.506;2023-03-20T02:16:21;100742.50;;;10.72;100.00
32638;BME280;19045;52.268;10.506;2023-03-20T02:18:49;100738.75;;;10.73;100.00
32638;BME280;19045;52.268;10.506;2023-03-20T02:21:42;100734.31;;;10.62;100.00
32638;BME280;19045;52.268;10.506;2023-03-20T02:27:23;100753.16;;;10.45;100.00
32638;BME280;19045;52.268;10.506;2023-03-20T02:36:05;100756.84;;;10.39;100.00
32638;BME280;19045;52.268;10.506;2023-03-20T02:39:00;100753.78;;;10.30;100.00
32638;BME280;19045;52.268;10.506;2023-03-20T02:41:30;100763.53;;;10.36;100.00
32638;BME280;19045;52.268;10.506;2023-03-20T02:44:03;100768.00;;;10.31;100.00
32638;BME280;19045;52.268;10.506;2023-03-20T02:46:38;100758.47;;;10.40;100.00
32638;BME280;19045;52.268;10.506;2023-03-20T02:49:17;100759.53;;;10.39;100.00
32638;BME280;19045;52.268;10.506;2023-03-20T02:51:50;100758.16;;;10.36;100.00
32638;BME280;19045;52.268;10.506;2023-03-20T02:54:25;100767.34;;;10.41;100.00
32638;BME280;19045;52.268;10.506;2023-03-20T02:57:00;100771.59;;;10.36;100.00
32638;BME280;19045;52.268;10.506;2023-03-20T02:59:33;100766.22;;;10.36;100.00
32638;BME280;19045;52.268;10.506;2023-03-20T03:02:04;100762.44;;;10.37;100.00
32638;BME280;19045;52.268;10.506;2023-03-20T03:04:35;100769.97;;;10.35;100.00
32638;BME280;19045;52.268;10.506;2023-03-20T03:07:05;100776.38;;;10.34;100.00
32638;BME280;19045;52.268;10.506;2023-03-20T03:09:38;100763.75;;;10.35;100.00
32638;BME280;19045;52.268;10.506;2023-03-20T03:12:10;100773.69;;;10.34;100.00
32638;BME280;19045;52.268;10.506;2023-03-20T03:14:40;100769.13;;;10.35;100.00
32638;BME280;19045;52.268;10.506;2023-03-20T03:17:09;100777.50;;;10.38;100.00
32638;BME280;19045;52.268;10.506;2023-03-20T03:19:39;100781.19;;;10.32;100.00
32638;BME280;19045;52.268;10.506;2023-03-20T03:22:07;100788.69;;;10.30;100.00
32638;BME280;19045;52.268;10.506;2023-03-20T03:24:37;100779.56;;;10.31;100.00
32638;BME280;19045;52.268;10.506;2023-03-20T03:27:10;100773.19;;;10.37;100.00
32638;BME280;19045;52.268;10.506;2023-03-20T03:29:39;100780.00;;;10.23;100.00
32638;BME280;19045;52.268;10.506;2023-03-20T03:32:21;100775.84;;;10.16;100.00
32638;BME280;19045;52.268;10.506;2023-03-20T03:34:48;100775.16;;;10.09;100.00
32638;BME280;19045;52.268;10.506;2023-03-20T03:37:22;100779.88;;;10.02;100.00
32638;BME280;19045;52.268;10.506;2023-03-20T03:39:57;100771.28;;;10.00;100.00
32638;BME280;19045;52.268;10.506;2023-03-20T03:42:31;100775.66;;;9.89;100.00
32638;BME280;19045;52.268;10.506;2023-03-20T03:45:03;100775.16;;;9.92;100.00
32638;BME280;19045;52.268;10.506;2023-03-20T03:47:33;100778.66;;;9.93;100.00
32638;BME280;19045;52.268;10.506;2023-03-20T03:50:06;100776.69;;;9.88;100.00
32638;BME280;19045;52.268;10.506;2023-03-20T03:52:35;100785.41;;;9.78;100.00
32638;BME280;19045;52.268;10.506;2023-03-20T03:55:09;100774.59;;;9.73;100.00
32638;BME280;19045;52.268;10.506;2023-03-20T03:57:41;100768.00;;;9.81;100.00
32638;BME280;19045;52.268;10.506;2023-03-20T04:00:12;100765.41;;;9.69;100.00
32638;BME280;19045;52.268;10.506;2023-03-20T04:02:41;100765.88;;;9.66;100.00
32638;BME280;19045;52.268;10.506;2023-03-20T04:05:08;100765.78;;;9.61;100.00
32638;BME280;19045;52.268;10.506;2023-03-20T04:07:37;100767.09;;;9.59;100.00
32638;BME280;19045;52.268;10.506;2023-03-20T04:10:05;100769.78;;;9.59;100.00
32638;BME280;19045;52.268;10.506;2023-03-20T04:12:35;100776.34;;;9.51;100.00
32638;BME280;19045;52.268;10.506;2023-03-20T04:15:03;100759.94;;;9.48;100.00
32638;BME280;19045;52.268;10.506;2023-03-20T04:17:29;100769.03;;;9.47;100.00
32638;BME280;19045;52.268;10.506;2023-03-20T04:19:56;100767.50;;;9.51;100.00
32638;BME280;19045;52.268;10.506;2023-03-20T04:22:23;100766.53;;;9.57;100.00
32638;BME280;19045;52.268;10.506;2023-03-20T04:24:50;100762.66;;;9.64;100.00
32638;BME280;19045;52.268;10.506;2023-03-20T04:27:17;100767.03;;;9.70;100.00
32638;BME280;19045;52.268;10.506;2023-03-20T04:29:44;100773.69;;;9.68;100.00
32638;BME280;19045;52.268;10.506;2023-03-20T04:32:12;100772.44;;;9.59;100.00
32638;BME280;19045;52.268;10.506;2023-03-20T04:34:38;100766.09;;;9.48;100.00
32638;BME280;19045;52.268;10.506;2023-03-20T04:37:05;100780.06;;;9.33;100.00
32638;BME280;19045;52.268;10.506;2023-03-20T04:39:33;100773.06;;;9.32;100.00
32638;BME280;19045;52.268;10.506;2023-03-20T04:41:59;100772.16;;;9.27;100.00
32638;BME280;19045;52.268;10.506;2023-03-20T04:44:26;100776.59;;;9.21;100.00
32638;BME280;19045;52.268;10.506;2023-03-20T04:46:54;100776.44;;;9.11;100.00
32638;BME280;19045;52.268;10.506;2023-03-20T04:49:21;100770.94;;;9.06;100.00
32638;BME280;19045;52.268;10.506;2023-03-20T04:51:47;100776.69;;;8.98;100.00
32638;BME280;19045;52.268;10.506;2023-03-20T04:54:14;100775.63;;;8.99;100.00
32638;BME280;19045;52.268;10.506;2023-03-20T04:56:41;100774.72;;;8.94;100.00
32638;BME280;19045;52.268;10.506;2023-03-20T04:59:07;100767.38;;;9.01;100.00
32638;BME280;19045;52.268;10.506;2023-03-20T05:01:34;100767.84;;;8.98;100.00
32638;BME280;19045;52.268;10.506;2023-03-20T05:04:02;100765.16;;;8.98;100.00
32638;BME280;19045;52.268;10.506;2023-03-20T05:06:29;100757.47;;;9.01;100.00
32638;BME280;19045;52.268;10.506;2023-03-20T05:08:57;100751.16;;;9.07;100.00
32638;BME280;19045;52.268;10.506;2023-03-20T05:11:25;100744.16;;;9.06;100.00
32638;BME280;19045;52.268;10.506;2023-03-20T05:13:55;100749.84;;;9.10;100.00
32638;BME280;19045;52.268;10.506;2023-03-20T05:16:21;100758.72;;;9.10;100.00
32638;BME280;19045;52.268;10.506;2023-03-20T05:18:48;100756.72;;;9.06;100.00
32638;BME280;19045;52.268;10.506;2023-03-20T05:21:16;100759.91;;;9.03;100.00
32638;BME280;19045;52.268;10.506;2023-03-20T05:23:42;100761.75;;;9.02;100.00
32638;BME280;19045;52.268;10.506;2023-03-20T05:26:09;100754.06;;;9.06;100.00
32638;BME280;19045;52.268;10.506;2023-03-20T05:28:36;100752.81;;;8.97;100.00
32638;BME280;19045;52.268;10.506;2023-03-20T05:31:03;100759.06;;;9.02;100.00
32638;BME280;19045;52.268;10.506;2023-03-20T05:33:29;100756.31;;;8.97;100.00
32638;BME280;19045;52.268;10.506;2023-03-20T05:35:56;100752.13;;;9.01;100.00
32638;BME280;19045;52.268;10.506;2023-03-20T05:38:24;100755.72;;;8.95;100.00
32638;BME280;19045;52.268;10.506;2023-03-20T05:40:55;100764.38;;;8.86;100.00
32638;BME280;19045;52.268;10.506;2023-03-20T05:43:21;100765.09;;;8.81;100.00
32638;BME280;19045;52.268;10.506;2023-03-20T05:45:48;100761.22;;;8.89;100.00
32638;BME280;19045;52.268;10.506;2023-03-20T05:48:15;100763.19;;;8.93;100.00
32638;BME280;19045;52.268;10.506;2023-03-20T05:50:41;100759.69;;;8.93;100.00
32638;BME280;19045;52.268;10.506;2023-03-20T05:53:08;100762.16;;;8.94;100.00
32638;BME280;19045;52.268;10.506;2023-03-20T05:55:36;100759.06;;;9.02;100.00
32638;BME280;19045;52.268;10.506;2023-03-20T05:58:02;100757.00;;;9.04;100.00
32638;BME280;19045;52.268;10.506;2023-03-20T06:00:29;100756.50;;;9.07;100.00
32638;BME280;19045;52.268;10.506;2023-03-20T06:02:56;100763.16;;;9.05;100.00
32638;BME280;19045;52.268;10.506;2023-03-20T06:05:23;100759.72;;;9.21;100.00
32638;BME280;19045;52.268;10.506;2023-03-20T06:07:49;100759.91;;;9.31;100.00
32638;BME280;19045;52.268;10.506;2023-03-20T06:10:16;100762.53;;;9.43;100.00
32638;BME280;19045;52.268;10.506;2023-03-20T06:12:45;100757.00;;;9.49;100.00
32638;BME280;19045;52.268;10.506;2023-03-20T06:15:12;100758.22;;;9.58;100.00
32638;BME280;19045;52.268;10.506;2023-03-20T06:17:38;100760.38;;;9.73;100.00
32638;BME280;19045;52.268;10.506;2023-03-20T06:20:06;100778.16;;;9.79;99.44
32638;BME280;19045;52.268;10.506;2023-03-20T06:22:34;100764.75;;;9.79;98.92
32638;BME280;19045;52.268;10.506;2023-03-20T06:25:00;100770.38;;;9.77;99.03
32638;BME280;19045;52.268;10.506;2023-03-20T06:27:27;100773.69;;;9.84;97.98
32638;BME280;19045;52.268;10.506;2023-03-20T06:29:56;100769.63;;;9.82;98.02
32638;BME280;19045;52.268;10.506;2023-03-20T06:32:23;100771.66;;;9.75;97.96
32638;BME280;19045;52.268;10.506;2023-03-20T06:34:49;100780.38;;;9.82;98.73
32638;BME280;19045;52.268;10.506;2023-03-20T06:37:18;100779.06;;;9.84;97.43
32638;BME280;19045;52.268;10.506;2023-03-20T06:39:45;100773.47;;;9.86;97.33
32638;BME280;19045;52.268;10.506;2023-03-20T06:42:11;100783.53;;;9.79;97.97
32638;BME280;19045;52.268;10.506;2023-03-20T06:44:38;100793.28;;;9.68;98.17
32638;BME280;19045;52.268;10.506;2023-03-20T06:47:06;100789.78;;;9.68;98.54
32638;BME280;19045;52.268;10.506;2023-03-20T06:49:33;100790.75;;;9.62;98.24
32638;BME280;19045;52.268;10.506;2023-03-20T06:51:59;100791.66;;;9.67;99.17
32638;BME280;19045;52.268;10.506;2023-03-20T06:54:27;100788.84;;;9.74;98.83
32638;BME280;19045;52.268;10.506;2023-03-20T06:56:54;100787.19;;;9.73;98.33
32638;BME280;19045;52.268;10.506;2023-03-20T06:59:20;100790.03;;;9.66;98.55
32638;BME280;19045;52.268;10.506;2023-03-20T07:01:47;100786.78;;;9.64;98.97
32638;BME280;19045;52.268;10.506;2023-03-20T07:04:16;100796.09;;;9.62;99.16
32638;BME280;19045;52.268;10.506;2023-03-20T07:06:42;100796.25;;;9.55;99.44
32638;BME280;19045;52.268;10.506;2023-03-20T07:09:09;100795.53;;;9.60;99.73
32638;BME280;19045;52.268;10.506;2023-03-20T07:11:35;100801.81;;;9.65;99.43
32638;BME280;19045;52.268;10.506;2023-03-20T07:14:02;100797.25;;;9.66;99.46
32638;BME280;19045;52.268;10.506;2023-03-20T07:16:29;100798.41;;;9.70;99.75
32638;BME280;19045;52.268;10.506;2023-03-20T07:18:56;100801.75;;;9.77;99.44
32638;BME280;19045;52.268;10.506;2023-03-20T07:21:24;100806.88;;;9.78;99.24
32638;BME280;19045;52.268;10.506;2023-03-20T07:23:50;100814.09;;;9.78;99.92
32638;BME280;19045;52.268;10.506;2023-03-20T07:26:17;100820.28;;;9.78;100.00
32638;BME280;19045;52.268;10.506;2023-03-20T07:28:44;100816.78;;;9.78;99.96
32638;BME280;19045;52.268;10.506;2023-03-20T07:31:17;100824.34;;;9.81;100.00
32638;BME280;19045;52.268;10.506;2023-03-20T07:33:44;100829.00;;;9.85;99.88
32638;BME280;19045;52.268;10.506;2023-03-20T07:36:11;100829.41;;;9.77;99.87
32638;BME280;19045;52.268;10.506;2023-03-20T07:38:39;100822.63;;;9.75;100.00
32638;BME280;19045;52.268;10.506;2023-03-20T07:41:06;100817.69;;;9.83;100.00
32638;BME280;19045;52.268;10.506;2023-03-20T07:43:32;100826.31;;;9.85;100.00
32638;BME280;19045;52.268;10.506;2023-03-20T07:46:01;100828.28;;;9.90;100.00
32638;BME280;19045;52.268;10.506;2023-03-20T07:48:28;100831.28;;;9.94;100.00
32638;BME280;19045;52.268;10.506;2023-03-20T07:50:54;100829.25;;;9.84;100.00
32638;BME280;19045;52.268;10.506;2023-03-20T07:53:21;100824.41;;;9.69;100.00
32638;BME280;19045;52.268;10.506;2023-03-20T07:55:49;100821.34;;;9.77;100.00
32638;BME280;19045;52.268;10.506;2023-03-20T07:58:15;100819.78;;;9.81;100.00
32638;BME280;19045;52.268;10.506;2023-03-20T08:00:42;100821.66;;;9.98;100.00
32638;BME280;19045;52.268;10.506;2023-03-20T08:03:09;100825.75;;;9.83;100.00
32638;BME280;19045;52.268;10.506;2023-03-20T08:05:36;100825.44;;;9.97;100.00
32638;BME280;19045;52.268;10.506;2023-03-20T08:08:03;100823.31;;;9.99;99.98
32638;BME280;19045;52.268;10.506;2023-03-20T08:10:29;100815.84;;;9.84;100.00
32638;BME280;19045;52.268;10.506;2023-03-20T08:12:57;100812.81;;;9.80;100.00
32638;BME280;19045;52.268;10.506;2023-03-20T08:15:24;100811.41;;;9.78;100.00
32638;BME280;19045;52.268;10.506;2023-03-20T08:17:51;100809.81;;;9.77;100.00
32638;BME280;19045;52.268;10.506;2023-03-20T08:20:18;100811.03;;;9.86;100.00
32638;BME280;19045;52.268;10.506;2023-03-20T08:22:46;100818.59;;;9.89;100.00
32638;BME280;19045;52.268;10.506;2023-03-20T08:25:14;100814.59;;;9.75;100.00
32638;BME280;19045;52.268;10.506;2023-03-20T08:27:40;100821.97;;;9.68;100.00
32638;BME280;19045;52.268;10.506;2023-03-20T08:30:09;100822.59;;;9.58;100.00
32638;BME280;19045;52.268;10.506;2023-03-20T08:32:38;100826.53;;;9.67;100.00
32638;BME280;19045;52.268;10.506;2023-03-20T08:35:05;100829.47;;;9.82;100.00
32638;BME280;19045;52.268;10.506;2023-03-20T08:37:32;100832.34;;;9.93;100.00
32638;BME280;19045;52.268;10.506;2023-03-20T08:39:59;100833.88;;;10.05;100.00
32638;BME280;19045;52.268;10.506;2023-03-20T08:42:26;100837.53;;;9.99;100.00
32638;BME280;19045;52.268;10.506;2023-03-20T08:44:52;100836.56;;;10.05;100.00
32638;BME280;19045;52.268;10.506;2023-03-20T08:47:20;100838.63;;;10.31;100.00
32638;BME280;19045;52.268;10.506;2023-03-20T08:49:47;100830.19;;;10.78;97.58
32638;BME280;19045;52.268;10.506;2023-03-20T08:52:13;100834.94;;;10.93;96.27
32638;BME280;19045;52.268;10.506;2023-03-20T08:54:40;100833.63;;;11.38;91.86
32638;BME280;19045;52.268;10.506;2023-03-20T08:57:06;100835.72;;;11.58;87.80
32638;BME280;19045;52.268;10.506;2023-03-20T08:59:33;100839.47;;;11.79;86.86
32638;BME280;19045;52.268;10.506;2023-03-20T09:02:00;100839.44;;;12.06;86.36
32638;BME280;19045;52.268;10.506;2023-03-20T09:04:28;100840.06;;;11.37;86.66
32638;BME280;19045;52.268;10.506;2023-03-20T09:06:54;100836.28;;;10.90;88.97
32638;BME280;19045;52.268;10.506;2023-03-20T09:09:21;100840.50;;;10.48;89.07
32638;BME280;19045;52.268;10.506;2023-03-20T09:11:53;100838.94;;;10.52;91.03
32638;BME280;19045;52.268;10.506;2023-03-20T09:14:21;100842.47;;;10.35;90.60
32638;BME280;19045;52.268;10.506;2023-03-20T09:16:47;100847.19;;;10.28;90.69
32638;BME280;19045;52.268;10.506;2023-03-20T09:19:15;100852.56;;;10.28;91.01
32638;BME280;19045;52.268;10.506;2023-03-20T09:21:43;100858.09;;;10.22;90.75
32638;BME280;19045;52.268;10.506;2023-03-20T09:24:09;100856.28;;;10.27;90.27
32638;BME280;19045;52.268;10.506;2023-03-20T09:26:37;100864.44;;;10.32;88.63
32638;BME280;19045;52.268;10.506;2023-03-20T09:29:04;100869.38;;;10.07;89.75
32638;BME280;19045;52.268;10.506;2023-03-20T09:31:31;100860.22;;;9.92;90.93
32638;BME280;19045;52.268;10.506;2023-03-20T09:33:58;100871.22;;;10.07;90.99
32638;BME280;19045;52.268;10.506;2023-03-20T09:36:25;100857.38;;;10.26;89.67
32638;BME280;19045;52.268;10.506;2023-03-20T09:38:53;100861.53;;;10.34;89.03
32638;BME280;19045;52.268;10.506;2023-03-20T09:41:20;100869.25;;;10.47;88.58
32638;BME280;19045;52.268;10.506;2023-03-20T09:43:59;100867.75;;;10.56;88.21
32638;BME280;19045;52.268;10.506;2023-03-20T09:49:34;100865.41;;;10.60;86.69
32638;BME280;19045;52.268;10.506;2023-03-20T09:52:17;100874.50;;;10.59;87.77
32638;BME280;19045;52.268;10.506;2023-03-20T09:54:49;100866.13;;;10.38;88.79
32638;BME280;19045;52.268;10.506;2023-03-20T09:57:20;100863.22;;;10.40;88.87
32638;BME280;19045;52.268;10.506;2023-03-20T09:59:49;100872.16;;;10.46;88.88
32638;BME280;19045;52.268;10.506;2023-03-20T10:02:21;100870.13;;;10.36;88.66
32638;BME280;19045;52.268;10.506;2023-03-20T10:04:52;100871.66;;;10.15;88.83
32638;BME280;19045;52.268;10.506;2023-03-20T10:07:20;100874.03;;;10.45;88.34
32638;BME280;19045;52.268;10.506;2023-03-20T10:09:49;100870.69;;;10.55;87.59
32638;BME280;19045;52.268;10.506;2023-03-20T10:12:25;100875.38;;;10.81;86.95
32638;BME280;19045;52.268;10.506;2023-03-20T10:15:00;100885.19;;;10.92;86.16
32638;BME280;19045;52.268;10.506;2023-03-20T10:17:41;100877.13;;;10.37;86.97
32638;BME280;19045;52.268;10.506;2023-03-20T10:20:12;100877.47;;;10.24;87.87
32638;BME280;19045;52.268;10.506;2023-03-20T10:22:42;100880.00;;;10.30;88.11
32638;BME280;19045;52.268;10.506;2023-03-20T10:25:22;100872.38;;;10.11;87.37
32638;BME280;19045;52.268;10.506;2023-03-20T10:27:51;100876.97;;;9.99;87.93
32638;BME280;19045;52.268;10.506;2023-03-20T10:30:27;100882.88;;;10.12;88.17
32638;BME280;19045;52.268;10.506;2023-03-20T10:33:08;100876.66;;;9.95;88.22
32638;BME280;19045;52.268;10.506;2023-03-20T10:35:42;100872.28;;;10.06;88.13
32638;BME280;19045;52.268;10.506;2023-03-20T10:38:22;100874.13;;;10.17;87.18
32638;BME280;19045;52.268;10.506;2023-03-20T10:40:51;100878.31;;;10.13;87.84
32638;BME280;19045;52.268;10.506;2023-03-20T10:43:23;100882.56;;;10.25;88.34
32638;BME280;19045;52.268;10.506;2023-03-20T10:45:57;100864.34;;;10.27;88.00
32638;BME280;19045;52.268;10.506;2023-03-20T10:48:29;100867.34;;;10.14;87.59
32638;BME280;19045;52.268;10.506;2023-03-20T10:50:59;100866.59;;;10.02;87.77
32638;BME280;19045;52.268;10.506;2023-03-20T10:53:31;100865.59;;;9.92;88.15
32638;BME280;19045;52.268;10.506;2023-03-20T10:56:04;100867.16;;;9.88;88.79
32638;BME280;19045;52.268;10.506;2023-03-20T10:58:36;100862.91;;;9.92;88.29
32638;BME280;19045;52.268;10.506;2023-03-20T11:01:04;100867.38;;;9.86;89.13
32638;BME280;19045;52.268;10.506;2023-03-20T11:03:32;100870.81;;;9.98;88.01
32638;BME280;19045;52.268;10.506;2023-03-20T11:06:07;100861.09;;;10.25;87.73
32638;BME280;19045;52.268;10.506;2023-03-20T11:08:39;100865.41;;;10.43;86.17
32638;BME280;19045;52.268;10.506;2023-03-20T11:11:08;100869.38;;;10.57;86.58
32638;BME280;19045;52.268;10.506;2023-03-20T11:13:36;100864.47;;;10.71;84.66
32638;BME280;19045;52.268;10.506;2023-03-20T11:16:10;100866.44;;;10.75;85.04
32638;BME280;19045;52.268;10.506;2023-03-20T11:18:40;100865.84;;;10.90;84.06
32638;BME280;19045;52.268;10.506;2023-03-20T11:21:14;100855.38;;;10.55;84.91
32638;BME280;19045;52.268;10.506;2023-03-20T11:23:42;100854.22;;;10.68;85.23
32638;BME280;19045;52.268;10.506;2023-03-20T11:26:13;100843.41;;;10.63;85.24
32638;BME280;19045;52.268;10.506;2023-03-20T11:28:45;100841.06;;;10.50;86.47
32638;BME280;19045;52.268;10.506;2023-03-20T11:31:18;100844.25;;;10.47;86.86
32638;BME280;19045;52.268;10.506;2023-03-20T11:33:50;100842.41;;;10.69;86.34
32638;BME280;19045;52.268;10.506;2023-03-20T11:36:23;100829.81;;;10.91;84.48
32638;BME280;19045;52.268;10.506;2023-03-20T11:38:51;100832.56;;;11.18;82.74
32638;BME280;19045;52.268;10.506;2023-03-20T11:41:23;100827.41;;;11.86;78.23
32638;BME280;19045;52.268;10.506;2023-03-20T11:43:50;100829.19;;;12.03;75.78
32638;BME280;19045;52.268;10.506;2023-03-20T11:46:18;100834.03;;;11.52;76.05
32638;BME280;19045;52.268;10.506;2023-03-20T11:48:46;100818.13;;;11.72;75.64
32638;BME280;19045;52.268;10.506;2023-03-20T11:51:14;100820.28;;;12.02;74.09
32638;BME280;19045;52.268;10.506;2023-03-20T11:53:57;100829.63;;;11.68;74.44
32638;BME280;19045;52.268;10.506;2023-03-20T11:56:26;100821.06;;;11.71;75.16
32638;BME280;19045;52.268;10.506;2023-03-20T11:58:55;100821.06;;;11.22;76.74
32638;BME280;19045;52.268;10.506;2023-03-20T12:01:23;100804.16;;;11.27;77.58
32638;BME280;19045;52.268;10.506;2023-03-20T12:03:52;100820.19;;;10.73;74.86
32638;BME280;19045;52.268;10.506;2023-03-20T12:06:25;100814.81;;;10.95;75.00
32638;BME280;19045;52.268;10.506;2023-03-20T12:08:56;100811.94;;;11.02;74.11
32638;BME280;19045;52.268;10.506;2023-03-20T12:11:44;100809.56;;;11.05;74.79
32638;BME280;19045;52.268;10.506;2023-03-20T12:14:20;100803.28;;;11.43;74.87
32638;BME280;19045;52.268;10.506;2023-03-20T12:16:51;100796.84;;;11.71;71.23
32638;BME280;19045;52.268;10.506;2023-03-20T12:19:22;100804.91;;;11.71;71.51
32638;BME280;19045;52.268;10.506;2023-03-20T12:21:54;100797.38;;;12.36;69.85
32638;BME280;19045;52.268;10.506;2023-03-20T12:24:30;100795.91;;;12.19;68.98
32638;BME280;19045;52.268;10.506;2023-03-20T12:27:12;100789.88;;;13.01;64.23
32638;BME280;19045;52.268;10.506;2023-03-20T12:29:45;100776.31;;;16.29;53.24
32638;BME280;19045;52.268;10.506;2023-03-20T12:32:16;100782.38;;;20.66;43.43
32638;BME280;19045;52.268;10.506;2023-03-20T12:34:46;100781.00;;;15.90;50.74
32638;BME280;19045;52.268;10.506;2023-03-20T12:37:15;100786.47;;;12.63;61.71
32638;BME280;19045;52.268;10.506;2023-03-20T12:39:47;100776.38;;;12.02;65.13
32638;BME280;19045;52.268;10.506;2023-03-20T12:42:23;100791.66;;;12.28;64.25
32638;BME280;19045;52.268;10.506;2023-03-20T12:44:55;100794.53;;;11.79;65.50
32638;BME280;19045;52.268;10.506;2023-03-20T12:47:45;100783.03;;;11.35;66.79
32638;BME280;19045;52.268;10.506;2023-03-20T12:50:23;100780.78;;;11.27;68.74
32638;BME280;19045;52.268;10.506;2023-03-20T12:53:11;100785.25;;;11.17;69.16
32638;BME280;19045;52.268;10.506;2023-03-20T12:55:50;100788.25;;;10.99;68.97
32638;BME280;19045;52.268;10.506;2023-03-20T12:58:31;100792.13;;;11.08;69.49
32638;BME280;19045;52.268;10.506;2023-03-20T13:01:04;100791.88;;;11.09;67.79
32638;BME280;19045;52.268;10.506;2023-03-20T13:03:52;100785.06;;;13.08;61.16